Terminal Aerodrome Forecast
Issued by NWS

Home | Current Version | Previous Version | Graphics & Text | Print | Product List | Glossary On
Versions: 1 2 3 4 5 6 7 8 9 10 11 12 13 14 15 16
000
FTUS43 KFGF 271720
TAFBJI
TAF
KBJI 271720Z 2718/2818 18015G22KT P6SM SCT200
     FM280100 15010KT P6SM BKN200
     FM280500 15009KT P6SM SCT110 BKN200
     FM280700 15007KT P6SM BKN090
     FM280900 15006KT P6SM VCTS OVC030CB
     FM281100 15007KT P6SM -TSRA OVC015CB
     FM281300 15008KT P6SM VCSH OVC008=

USA.gov is the U.S. government's official web portal to all federal, state and local government web resources and services.